Time;durP1;ratioP1;P1;durP2;ratioP2;P2;SDS_P1;SDS_P2;PMS_P1;PMS_P2;Temp;Humidity;BMP_temperature;BMP_pressure;BME280_temperature;BME280_humidity;BME280_pressure;Samples;Min_cycle;Max_cycle;Signal;HPM_P1;HPM_P2
2021/08/01 00:01:08;;;;;;;8.40;4.30;;;16.50;99.90;;;;;;5064140;28;20232;-81
2021/08/01 00:03:36;;;;;;;5.07;4.60;;;16.60;99.90;;;;;;5048983;28;20449;-82
2021/08/01 00:06:22;;;;;;;5.97;4.73;;;16.60;99.90;;;;;;5049496;28;20231;-82
2021/08/01 00:08:50;;;;;;;5.67;4.53;;;16.60;99.90;;;;;;5049917;28;20260;-81
2021/08/01 00:11:20;;;;;;;6.20;4.57;;;16.60;99.90;;;;;;5056626;28;20285;-81
2021/08/01 00:13:49;;;;;;;5.07;4.50;;;16.60;99.90;;;;;;5069105;28;20234;-81
2021/08/01 00:16:17;;;;;;;8.90;4.57;;;16.60;99.90;;;;;;5069384;28;20418;-81
2021/08/01 00:18:45;;;;;;;6.60;4.40;;;16.50;99.90;;;;;;5069680;28;20765;-82
2021/08/01 00:21:13;;;;;;;5.90;4.97;;;16.50;99.90;;;;;;5058544;28;20594;-81
2021/08/01 00:23:41;;;;;;;6.57;4.30;;;16.50;99.90;;;;;;5045863;28;20612;-82
2021/08/01 00:26:10;;;;;;;6.83;5.00;;;16.50;99.90;;;;;;5055254;28;20235;-82
2021/08/01 00:28:39;;;;;;;5.83;4.63;;;16.50;99.90;;;;;;5068848;28;20247;-82
2021/08/01 00:31:07;;;;;;;5.93;4.40;;;16.50;99.90;;;;;;5063318;28;20597;-82
2021/08/01 00:33:36;;;;;;;4.83;4.30;;;16.50;99.90;;;;;;5048803;28;20293;-81
2021/08/01 00:36:04;;;;;;;8.23;5.27;;;16.50;99.90;;;;;;5049187;28;20307;-81
2021/08/01 00:38:32;;;;;;;8.23;5.20;;;16.50;99.90;;;;;;5048966;28;20240;-82
2021/08/01 00:41:01;;;;;;;5.37;4.67;;;16.50;99.90;;;;;;5053641;28;20319;-82
2021/08/01 00:43:30;;;;;;;6.57;4.80;;;16.50;99.90;;;;;;5067328;28;20234;-81
2021/08/01 00:46:00;;;;;;;7.33;4.50;;;16.40;99.90;;;;;;5064588;28;20243;-81
2021/08/01 00:48:28;;;;;;;6.80;4.77;;;16.40;99.90;;;;;;5064157;28;20512;-82
2021/08/01 00:50:56;;;;;;;5.37;4.60;;;16.40;99.90;;;;;;5043239;28;20241;-81
2021/08/01 00:53:26;;;;;;;5.17;4.30;;;16.50;99.90;;;;;;5028503;28;20759;-82
2021/08/01 00:55:55;;;;;;;5.70;4.70;;;16.50;99.90;;;;;;5035421;28;20243;-82
2021/08/01 00:58:23;;;;;;;6.17;4.50;;;16.50;99.90;;;;;;5067657;28;20637;-81
2021/08/01 01:03:56;;;;;;;5.83;4.73;;;16.40;99.90;;;;;;5024964;28;20291;-81
2021/08/01 01:06:33;;;;;;;7.50;4.43;;;16.50;99.90;;;;;;5051766;28;20293;-82
2021/08/01 01:09:07;;;;;;;10.13;4.80;;;16.50;99.90;;;;;;5047375;28;20231;-81
2021/08/01 01:11:57;;;;;;;4.73;4.10;;;16.50;99.90;;;;;;5060238;28;20598;-82
2021/08/01 01:14:29;;;;;;;7.57;4.87;;;16.50;99.90;;;;;;5066700;28;20238;-81
2021/08/01 01:17:03;;;;;;;5.37;4.17;;;16.50;99.90;;;;;;5058648;28;20707;-81
2021/08/01 01:20:00;;;;;;;5.03;4.10;;;16.50;99.90;;;;;;5028428;28;20240;-82
2021/08/01 01:22:40;;;;;;;6.13;4.73;;;16.50;99.90;;;;;;5013960;28;20240;-82
2021/08/01 01:25:46;;;;;;;5.70;4.10;;;16.50;99.90;;;;;;5037099;28;20613;-81
2021/08/01 01:28:23;;;;;;;5.93;4.93;;;16.40;99.90;;;;;;5068422;28;20234;-82
2021/08/01 01:31:09;;;;;;;5.07;4.57;;;16.40;99.90;;;;;;5064719;28;20718;-81
2021/08/01 01:33:43;;;;;;;6.07;4.17;;;16.40;99.90;;;;;;5047435;28;20318;-81
2021/08/01 01:36:18;;;;;;;5.20;4.80;;;16.50;99.90;;;;;;5047818;28;20231;-81
2021/08/01 01:38:48;;;;;;;6.63;4.60;;;16.50;99.90;;;;;;5045371;28;20231;-81
2021/08/01 01:41:36;;;;;;;4.73;4.30;;;16.50;99.90;;;;;;5045781;28;20336;-82
2021/08/01 01:44:29;;;;;;;6.50;4.50;;;16.50;99.90;;;;;;5046844;28;20306;-82
2021/08/01 01:46:58;;;;;;;5.10;4.50;;;16.50;99.90;;;;;;5045554;28;20254;-81
2021/08/01 01:49:28;;;;;;;6.43;4.50;;;16.40;99.90;;;;;;5045072;28;20255;-82
2021/08/01 01:52:01;;;;;;;5.20;4.70;;;16.40;99.90;;;;;;5058417;28;20242;-81
2021/08/01 01:54:30;;;;;;;5.57;4.70;;;16.50;99.90;;;;;;5066677;28;20758;-82
2021/08/01 01:57:00;;;;;;;6.83;4.53;;;16.50;99.90;;;;;;5064947;28;20691;-82
2021/08/01 01:59:34;;;;;;;5.87;4.47;;;16.50;99.90;;;;;;5081771;28;20533;-81
2021/08/01 02:02:02;;;;;;;8.17;5.07;;;16.50;99.90;;;;;;5048032;28;20248;-82
2021/08/01 02:04:31;;;;;;;6.43;5.17;;;16.50;99.90;;;;;;5026230;28;20264;-82
2021/08/01 02:07:31;;;;;;;8.73;5.27;;;16.40;99.90;;;;;;5022539;28;20277;-81
2021/08/01 02:10:30;;;;;;;6.07;5.30;;;16.40;99.90;;;;;;5045213;28;20235;-82
2021/08/01 02:13:01;;;;;;;6.77;5.20;;;16.40;99.90;;;;;;5024296;28;20607;-82
2021/08/01 02:15:45;;;;;;;7.13;5.20;;;16.40;99.90;;;;;;5029938;28;20263;-81
2021/08/01 02:18:22;;;;;;;8.60;5.63;;;16.40;99.90;;;;;;5044965;28;20247;-82
2021/08/01 02:20:54;;;;;;;6.93;5.90;;;16.40;99.90;;;;;;5052660;28;20269;-82
2021/08/01 02:23:37;;;;;;;8.03;6.00;;;16.40;99.90;;;;;;5065918;28;20641;-81
2021/08/01 02:26:07;;;;;;;9.80;6.03;;;16.40;99.90;;;;;;5082581;28;20678;-81
2021/08/01 02:28:36;;;;;;;8.70;5.83;;;16.40;99.90;;;;;;5065682;28;20235;-82
2021/08/01 02:31:05;;;;;;;7.90;5.60;;;16.40;99.90;;;;;;5066801;28;20245;-82
2021/08/01 02:33:35;;;;;;;7.53;5.43;;;16.40;99.90;;;;;;5066724;28;20239;-82
2021/08/01 02:36:26;;;;;;;6.90;5.70;;;16.40;99.90;;;;;;5066647;28;20239;-81
2021/08/01 02:38:58;;;;;;;7.70;6.30;;;16.40;99.90;;;;;;5065955;28;20281;-81
2021/08/01 02:41:30;;;;;;;9.93;5.63;;;16.40;99.90;;;;;;5066809;28;20319;-82
2021/08/01 02:44:03;;;;;;;9.07;6.00;;;16.40;99.90;;;;;;5065454;28;20236;-82
2021/08/01 02:46:33;;;;;;;8.43;5.80;;;16.30;99.90;;;;;;5058127;28;20697;-82
2021/08/01 02:49:06;;;;;;;8.37;5.60;;;16.30;99.90;;;;;;5045573;28;20228;-81
2021/08/01 02:51:34;;;;;;;6.57;5.03;;;16.30;99.90;;;;;;5045291;28;20243;-82
2021/08/01 02:54:05;;;;;;;8.00;5.10;;;16.30;99.90;;;;;;5047050;28;20242;-82
2021/08/01 02:56:36;;;;;;;6.30;5.20;;;16.30;99.90;;;;;;5055430;28;20242;-81
2021/08/01 02:59:07;;;;;;;5.90;4.90;;;16.30;99.90;;;;;;5065762;28;20236;-82
2021/08/01 03:01:36;;;;;;;7.60;4.90;;;16.30;99.90;;;;;;5066085;28;20261;-82
2021/08/01 03:04:06;;;;;;;7.73;5.57;;;16.30;99.90;;;;;;5065273;28;20227;-82
2021/08/01 03:06:35;;;;;;;9.67;5.37;;;16.30;99.90;;;;;;5066631;28;20243;-81
2021/08/01 03:09:05;;;;;;;6.40;4.73;;;16.30;99.90;;;;;;5065410;28;20236;-81
2021/08/01 03:11:35;;;;;;;7.93;5.97;;;16.30;99.90;;;;;;5057125;28;20251;-82
2021/08/01 03:14:07;;;;;;;9.60;5.63;;;16.30;99.90;;;;;;5045188;28;20251;-82
2021/08/01 03:16:36;;;;;;;7.37;5.70;;;16.30;99.90;;;;;;5044958;28;20240;-81
2021/08/01 03:19:04;;;;;;;7.00;5.80;;;16.30;99.90;;;;;;5045470;28;20236;-81
2021/08/01 03:21:37;;;;;;;9.27;6.20;;;16.30;99.90;;;;;;5044185;28;20244;-81
2021/08/01 03:24:19;;;;;;;8.87;6.07;;;16.30;99.90;;;;;;5045594;28;20231;-81
2021/08/01 03:26:51;;;;;;;7.00;6.10;;;16.30;99.90;;;;;;5054005;28;20247;-81
2021/08/01 03:29:19;;;;;;;7.17;6.10;;;16.20;99.90;;;;;;5030789;28;20286;-82
2021/08/01 03:31:48;;;;;;;8.30;5.90;;;16.30;99.90;;;;;;5040341;28;20258;-82
2021/08/01 03:34:17;;;;;;;8.00;5.93;;;16.20;99.90;;;;;;5032234;28;20318;-81
2021/08/01 03:36:46;;;;;;;8.77;6.50;;;16.20;99.90;;;;;;5038974;28;20248;-82
2021/08/01 03:39:37;;;;;;;9.87;6.70;;;16.20;99.90;;;;;;4979161;28;20244;-82
2021/08/01 03:42:06;;;;;;;8.33;6.20;;;16.20;99.90;;;;;;5028341;28;20232;-81
2021/08/01 03:44:34;;;;;;;9.03;6.23;;;16.20;99.90;;;;;;5028579;28;20353;-81
2021/08/01 03:47:02;;;;;;;8.57;6.13;;;16.20;99.90;;;;;;5042902;28;20239;-81
2021/08/01 03:49:30;;;;;;;8.17;6.40;;;16.20;99.90;;;;;;5050299;28;20235;-81
2021/08/01 03:51:59;;;;;;;9.93;6.90;;;16.20;99.90;;;;;;5049692;28;20228;-82
2021/08/01 03:54:27;;;;;;;9.27;6.70;;;16.20;99.90;;;;;;5050066;28;20315;-82
2021/08/01 03:56:56;;;;;;;8.63;6.60;;;16.20;99.90;;;;;;5049224;28;20236;-82
2021/08/01 03:59:24;;;;;;;9.93;7.10;;;16.20;99.90;;;;;;5049799;28;20231;-82
2021/08/01 04:01:53;;;;;;;8.20;6.70;;;16.20;99.90;;;;;;5019495;28;20600;-81
2021/08/01 04:04:21;;;;;;;9.63;7.53;;;16.20;99.90;;;;;;5011926;28;20738;-82
2021/08/01 04:06:49;;;;;;;9.63;7.47;;;16.20;99.90;;;;;;5029492;28;20244;-81
2021/08/01 04:09:17;;;;;;;8.13;6.37;;;16.20;99.90;;;;;;5029969;28;20242;-82
2021/08/01 04:11:46;;;;;;;10.07;5.90;;;16.20;99.90;;;;;;5040017;28;20239;-81
2021/08/01 04:14:15;;;;;;;10.07;6.60;;;16.20;99.90;;;;;;5031699;28;20790;-81
2021/08/01 04:16:43;;;;;;;12.33;6.63;;;16.20;99.90;;;;;;5049294;28;20246;-82
2021/08/01 04:19:13;;;;;;;12.13;7.23;;;16.20;99.90;;;;;;5043420;28;20237;-82
2021/08/01 04:21:42;;;;;;;10.83;7.00;;;16.20;99.90;;;;;;5038913;28;20246;-81
2021/08/01 04:24:10;;;;;;;11.90;6.93;;;16.20;99.90;;;;;;5048914;28;20235;-81
2021/08/01 04:26:39;;;;;;;9.63;6.60;;;16.30;99.90;;;;;;5039184;28;20247;-82
2021/08/01 04:29:08;;;;;;;10.40;7.10;;;16.20;99.90;;;;;;5029709;28;20319;-82
2021/08/01 04:31:37;;;;;;;9.87;6.30;;;16.30;99.90;;;;;;5054644;28;20238;-82
2021/08/01 04:34:05;;;;;;;8.43;6.77;;;16.30;99.90;;;;;;5069501;28;20691;-81
2021/08/01 04:36:34;;;;;;;8.83;7.00;;;16.30;99.90;;;;;;5067866;28;20250;-81
2021/08/01 04:39:02;;;;;;;8.43;6.70;;;16.30;99.90;;;;;;5069855;28;20298;-81
2021/08/01 04:41:30;;;;;;;8.13;6.20;;;16.30;99.90;;;;;;5058818;28;20239;-82
2021/08/01 04:43:58;;;;;;;16.27;7.30;;;16.30;99.90;;;;;;5049189;28;20264;-81
2021/08/01 04:46:26;;;;;;;7.93;6.27;;;16.30;99.90;;;;;;5056920;28;20702;-83
2021/08/01 04:48:56;;;;;;;10.70;6.57;;;16.30;99.90;;;;;;5064323;28;20257;-83
2021/08/01 04:51:24;;;;;;;11.23;7.43;;;16.30;99.90;;;;;;5054584;28;20258;-82
2021/08/01 04:53:52;;;;;;;10.13;7.47;;;16.30;99.90;;;;;;5067155;28;20266;-82
2021/08/01 04:56:20;;;;;;;11.50;7.23;;;16.30;99.90;;;;;;5061578;28;20232;-82
2021/08/01 04:58:48;;;;;;;9.70;7.20;;;16.40;99.90;;;;;;5064360;28;20334;-81
2021/08/01 05:01:18;;;;;;;11.40;7.40;;;16.40;99.90;;;;;;5053856;28;20235;-81
2021/08/01 05:03:46;;;;;;;11.20;7.57;;;16.40;99.90;;;;;;5068357;28;20251;-82
2021/08/01 05:06:16;;;;;;;8.93;7.40;;;16.40;99.90;;;;;;5068617;28;20231;-82
2021/08/01 05:08:44;;;;;;;10.57;7.20;;;16.40;99.90;;;;;;5068654;28;20722;-82
2021/08/01 05:11:12;;;;;;;8.83;7.27;;;16.40;99.90;;;;;;5057768;28;20241;-82
2021/08/01 05:13:40;;;;;;;11.73;8.10;;;16.40;99.90;;;;;;5028274;28;20602;-82
2021/08/01 05:16:08;;;;;;;8.73;7.27;;;16.40;99.90;;;;;;5028934;28;20228;-81
2021/08/01 05:18:36;;;;;;;10.03;7.70;;;16.40;99.90;;;;;;5043604;28;20266;-81
2021/08/01 05:21:05;;;;;;;8.80;7.50;;;16.50;99.90;;;;;;5038280;28;20236;-81
2021/08/01 05:23:34;;;;;;;10.30;7.67;;;16.40;99.90;;;;;;5048470;28;20239;-82
2021/08/01 05:26:02;;;;;;;10.47;7.47;;;16.50;99.90;;;;;;5048513;28;20589;-82
2021/08/01 05:28:31;;;;;;;10.10;7.30;;;16.50;99.90;;;;;;5048084;28;20335;-82
2021/08/01 05:30:59;;;;;;;10.40;7.80;;;16.50;99.90;;;;;;5048203;28;20323;-82
2021/08/01 05:33:27;;;;;;;9.73;8.37;;;16.60;99.90;;;;;;5047925;28;20315;-82
2021/08/01 05:35:55;;;;;;;7.83;7.07;;;16.70;99.90;;;;;;5051896;28;20231;-82
2021/08/01 05:38:23;;;;;;;12.23;8.30;;;16.70;99.90;;;;;;5068394;28;20321;-82
2021/08/01 05:40:53;;;;;;;10.03;8.27;;;16.70;99.90;;;;;;5066215;28;20334;-82
2021/08/01 05:43:21;;;;;;;12.27;8.10;;;16.80;99.90;;;;;;5067471;28;20269;-82
2021/08/01 05:45:49;;;;;;;12.07;9.80;;;16.80;99.90;;;;;;5063343;28;20271;-82
2021/08/01 05:48:17;;;;;;;12.23;8.67;;;16.80;99.90;;;;;;5048196;28;20232;-82
2021/08/01 05:50:45;;;;;;;11.53;9.10;;;16.80;99.90;;;;;;5047683;28;20247;-82
2021/08/01 05:53:14;;;;;;;12.03;8.83;;;16.90;99.90;;;;;;5047863;28;20235;-82
2021/08/01 05:55:42;;;;;;;13.00;8.80;;;16.90;99.90;;;;;;5049384;28;20956;-82
2021/08/01 05:58:11;;;;;;;14.20;10.10;;;16.90;99.90;;;;;;5067959;28;20239;-82
2021/08/01 06:00:39;;;;;;;11.07;9.40;;;16.90;99.90;;;;;;5067409;28;20323;-82
2021/08/01 06:03:08;;;;;;;11.67;9.03;;;17.00;99.90;;;;;;5067107;28;20706;-82
2021/08/01 06:05:36;;;;;;;12.33;9.33;;;17.00;99.90;;;;;;5066510;28;20327;-82
2021/08/01 06:08:05;;;;;;;11.17;8.50;;;17.10;99.90;;;;;;5047439;28;20238;-82
2021/08/01 06:10:33;;;;;;;12.63;9.00;;;17.20;99.90;;;;;;5048030;28;20323;-82
2021/08/01 06:13:01;;;;;;;11.67;9.53;;;17.30;99.90;;;;;;5047446;28;20240;-82
2021/08/01 06:15:30;;;;;;;11.23;9.43;;;17.30;99.90;;;;;;5047711;28;20351;-82
2021/08/01 06:17:58;;;;;;;11.90;8.47;;;17.30;99.90;;;;;;5066586;28;20248;-83
2021/08/01 06:20:27;;;;;;;10.70;8.80;;;17.30;99.90;;;;;;5062575;28;20234;-82
2021/08/01 06:22:55;;;;;;;10.93;8.80;;;17.40;99.90;;;;;;5046878;28;20241;-82
2021/08/01 06:25:24;;;;;;;11.20;9.13;;;17.50;99.90;;;;;;5047721;28;20757;-82
2021/08/01 06:27:52;;;;;;;12.50;9.57;;;17.50;99.90;;;;;;5047056;28;20707;-83
2021/08/01 06:30:21;;;;;;;11.20;8.90;;;17.50;99.90;;;;;;5028441;28;20689;-82
2021/08/01 06:32:50;;;;;;;10.83;8.87;;;17.50;99.90;;;;;;5046218;28;20259;-82
2021/08/01 06:35:18;;;;;;;10.90;8.87;;;17.50;99.90;;;;;;5047339;28;20270;-82
2021/08/01 06:37:46;;;;;;;15.37;9.63;;;17.50;99.90;;;;;;5045556;28;20275;-82
2021/08/01 06:40:16;;;;;;;13.50;9.83;;;17.50;99.90;;;;;;5047212;28;20236;-83
2021/08/01 06:42:45;;;;;;;14.80;9.23;;;17.60;99.90;;;;;;5046595;28;20277;-82
2021/08/01 06:45:13;;;;;;;15.07;9.83;;;17.60;99.90;;;;;;5047277;28;20781;-82
2021/08/01 06:47:41;;;;;;;15.23;9.63;;;17.80;99.90;;;;;;5046647;28;20239;-82
2021/08/01 06:50:11;;;;;;;13.03;9.70;;;17.90;99.90;;;;;;5047796;28;20231;-82
2021/08/01 06:52:39;;;;;;;13.13;9.70;;;17.90;99.90;;;;;;5064585;28;20719;-83
2021/08/01 06:55:08;;;;;;;12.20;9.50;;;18.00;99.90;;;;;;5067492;28;20266;-82
2021/08/01 06:57:36;;;;;;;18.53;11.13;;;17.90;99.90;;;;;;5049073;28;20651;-83
2021/08/01 07:00:21;;;;;;;13.15;8.55;;;18.00;99.90;;;;;;4034728;28;10001977;-83
2021/08/01 07:02:53;;;;;;;11.13;8.77;;;18.10;99.90;;;;;;2424428;28;10002120;-82
2021/08/01 07:05:25;;;;;;;9.43;8.50;;;18.10;99.90;;;;;;5031052;28;20475;-82
2021/08/01 07:07:53;;;;;;;10.87;8.83;;;18.10;99.90;;;;;;5070903;28;20327;-83
2021/08/01 07:10:22;;;;;;;10.90;9.00;;;18.20;99.90;;;;;;5071096;28;20248;-82
2021/08/01 07:12:50;;;;;;;9.83;8.43;;;18.30;99.90;;;;;;5069694;28;20657;-82
2021/08/01 07:15:25;;;;;;;10.57;8.43;;;18.30;99.90;;;;;;5070909;28;20236;-82
2021/08/01 07:17:55;;;;;;;12.53;9.07;;;18.30;99.90;;;;;;5070337;28;20234;-83
2021/08/01 07:20:26;;;;;;;11.40;9.23;;;18.40;99.90;;;;;;5066262;28;20246;-83
2021/08/01 07:22:54;;;;;;;9.47;8.47;;;18.50;99.90;;;;;;5030547;28;20293;-83
2021/08/01 07:25:24;;;;;;;11.70;8.77;;;18.70;99.90;;;;;;5030838;28;20640;-82
2021/08/01 07:27:52;;;;;;;11.07;8.97;;;18.70;99.90;;;;;;5070030;28;20294;-82
2021/08/01 07:30:21;;;;;;;9.50;8.50;;;18.70;99.90;;;;;;5070511;28;20317;-83
2021/08/01 07:32:49;;;;;;;11.80;8.57;;;18.80;99.90;;;;;;5068560;28;20263;-82
2021/08/01 07:35:18;;;;;;;8.70;7.80;;;18.80;99.90;;;;;;5070889;28;20253;-82
2021/08/01 07:37:47;;;;;;;10.50;8.03;;;18.80;99.90;;;;;;5069537;28;20252;-82
2021/08/01 07:40:15;;;;;;;14.17;8.23;;;18.90;99.90;;;;;;5070336;28;20238;-83
2021/08/01 07:42:43;;;;;;;8.40;7.50;;;18.90;99.90;;;;;;5069623;28;20692;-82
2021/08/01 07:45:22;;;;;;;10.60;8.23;;;19.00;99.90;;;;;;5068794;28;20245;-82
2021/08/01 07:47:50;;;;;;;11.77;7.93;;;19.00;99.90;;;;;;5070084;28;20347;-82
2021/08/01 07:50:19;;;;;;;8.47;7.53;;;19.00;99.90;;;;;;5069915;28;20313;-83
2021/08/01 07:52:48;;;;;;;8.27;7.20;;;18.80;99.90;;;;;;5069217;28;20245;-82
2021/08/01 07:55:16;;;;;;;9.90;7.23;;;18.80;99.90;;;;;;5070126;28;20659;-82
2021/08/01 07:57:45;;;;;;;9.57;7.20;;;18.90;99.90;;;;;;5069529;28;20287;-82
2021/08/01 08:00:15;;;;;;;9.23;7.07;;;19.00;99.90;;;;;;5070255;28;20243;-82
2021/08/01 08:02:43;;;;;;;9.20;6.90;;;19.10;99.90;;;;;;5050349;28;20647;-82
2021/08/01 08:05:13;;;;;;;9.10;6.57;;;19.20;99.90;;;;;;5049722;28;20571;-82
2021/08/01 08:07:42;;;;;;;9.87;6.77;;;19.10;99.90;;;;;;5067666;28;20311;-82
2021/08/01 08:10:12;;;;;;;8.10;6.50;;;19.10;99.90;;;;;;5069753;28;20258;-83
2021/08/01 08:12:41;;;;;;;10.13;6.50;;;19.10;99.90;;;;;;5049591;28;20292;-82
2021/08/01 08:15:12;;;;;;;7.77;6.50;;;19.00;99.90;;;;;;5049460;28;20241;-83
2021/08/01 08:17:40;;;;;;;10.13;6.60;;;19.10;99.90;;;;;;5067550;28;20251;-83
2021/08/01 08:20:10;;;;;;;9.67;6.83;;;19.10;99.90;;;;;;5067488;28;20244;-83
2021/08/01 08:22:38;;;;;;;7.93;6.47;;;19.20;99.90;;;;;;5066593;28;20710;-83
2021/08/01 08:25:08;;;;;;;7.50;5.93;;;19.20;99.90;;;;;;5069706;28;20654;-82
2021/08/01 08:27:38;;;;;;;7.57;5.87;;;19.40;99.90;;;;;;5068959;28;20308;-82
2021/08/01 08:30:08;;;;;;;8.30;6.17;;;19.40;99.90;;;;;;5069389;28;20329;-82
2021/08/01 08:32:36;;;;;;;8.73;6.50;;;19.50;99.90;;;;;;5057333;28;20269;-82
2021/08/01 08:35:06;;;;;;;7.77;6.53;;;19.40;99.90;;;;;;5029563;28;20602;-82
2021/08/01 08:37:44;;;;;;;6.67;5.53;;;19.30;99.90;;;;;;5063996;28;20863;-83
2021/08/01 08:40:13;;;;;;;8.37;5.60;;;19.30;99.90;;;;;;5069293;28;20744;-83
2021/08/01 08:42:45;;;;;;;7.37;5.40;;;19.40;99.90;;;;;;5050006;28;20243;-83
2021/08/01 08:45:15;;;;;;;10.23;5.43;;;19.60;99.90;;;;;;5049169;28;20230;-82
2021/08/01 08:47:45;;;;;;;8.10;4.83;;;19.80;99.90;;;;;;5047630;28;20325;-82
2021/08/01 08:50:14;;;;;;;5.57;4.50;;;20.00;99.90;;;;;;5049652;28;20262;-83
2021/08/01 08:52:44;;;;;;;6.03;4.47;;;20.20;99.90;;;;;;5048055;28;20235;-83
2021/08/01 08:55:14;;;;;;;5.37;3.93;;;20.40;99.90;;;;;;5049139;28;20237;-83
2021/08/01 08:57:47;;;;;;;5.50;3.73;;;20.70;99.90;;;;;;5049094;28;20243;-83
2021/08/01 09:00:16;;;;;;;5.03;3.40;;;20.80;99.90;;;;;;5049952;28;20645;-83
2021/08/01 09:02:45;;;;;;;3.80;3.27;;;20.90;99.90;;;;;;5067809;28;20245;-83
2021/08/01 09:05:13;;;;;;;4.50;3.10;;;20.90;99.90;;;;;;5068665;28;20249;-83
2021/08/01 09:07:42;;;;;;;5.87;3.30;;;21.00;99.90;;;;;;5050375;28;20240;-83
2021/08/01 09:10:11;;;;;;;3.27;2.97;;;21.20;99.90;;;;;;5047778;28;20235;-81
2021/08/01 09:12:45;;;;;;;5.90;3.53;;;21.20;99.90;;;;;;5047942;28;20247;-82
2021/08/01 09:15:16;;;;;;;3.53;3.23;;;21.00;99.90;;;;;;5029297;28;20678;-82
2021/08/01 09:17:44;;;;;;;3.97;3.00;;;21.00;99.90;;;;;;5046979;28;20236;-82
2021/08/01 09:20:23;;;;;;;4.80;3.90;;;21.20;99.90;;;;;;5051781;28;20748;-82
2021/08/01 09:23:13;;;;;;;4.27;3.60;;;21.10;99.90;;;;;;5048126;28;20240;-82
2021/08/01 09:25:42;;;;;;;5.17;3.80;;;21.40;99.90;;;;;;5044938;28;20776;-82
2021/08/01 09:28:15;;;;;;;3.53;3.23;;;21.60;99.90;;;;;;5048345;28;20265;-82
2021/08/01 09:30:49;;;;;;;4.97;3.53;;;21.60;99.90;;;;;;5047961;28;20253;-82
2021/08/01 09:33:32;;;;;;;6.43;3.80;;;21.40;99.90;;;;;;5046888;28;20239;-82
2021/08/01 09:36:09;;;;;;;4.40;4.00;;;21.20;99.90;;;;;;5052877;28;20242;-81
2021/08/01 09:38:47;;;;;;;5.97;3.70;;;20.90;99.90;;;;;;5067909;28;20597;-82
2021/08/01 09:41:17;;;;;;;5.30;3.17;;;21.40;99.90;;;;;;5061949;28;20289;-82
2021/08/01 09:43:48;;;;;;;3.70;3.40;;;21.70;99.90;;;;;;5046565;28;20278;-82
2021/08/01 09:46:17;;;;;;;4.33;3.60;;;22.00;99.90;;;;;;5054423;28;20310;-82
2021/08/01 09:48:46;;;;;;;5.13;3.60;;;22.20;99.90;;;;;;5068174;28;20241;-82
2021/08/01 09:51:15;;;;;;;3.70;3.17;;;22.00;99.90;;;;;;5061418;28;20242;-82
2021/08/01 09:53:44;;;;;;;3.83;3.40;;;22.00;99.90;;;;;;5046152;28;20263;-81
2021/08/01 09:56:17;;;;;;;4.83;3.33;;;21.90;99.90;;;;;;5053908;28;20288;-82
2021/08/01 09:58:48;;;;;;;3.90;3.60;;;22.50;99.90;;;;;;5068313;28;20250;-82
2021/08/01 10:01:17;;;;;;;4.37;3.10;;;22.90;99.90;;;;;;5061475;28;20702;-82
2021/08/01 10:03:49;;;;;;;4.10;3.10;;;23.40;99.90;;;;;;5047583;28;20244;-82
2021/08/01 10:06:19;;;;;;;4.23;3.03;;;24.00;99.90;;;;;;5062778;28;20240;-83
2021/08/01 10:08:49;;;;;;;3.70;3.40;;;23.90;99.90;;;;;;5046650;28;20240;-82
2021/08/01 10:11:18;;;;;;;3.57;3.17;;;23.30;99.90;;;;;;5046238;28;20742;-83
2021/08/01 10:13:49;;;;;;;4.60;3.70;;;22.60;99.90;;;;;;5046299;28;20256;-82
2021/08/01 10:16:18;;;;;;;4.63;3.20;;;22.60;99.90;;;;;;5047607;28;20243;-82
2021/08/01 10:18:47;;;;;;;4.17;3.27;;;23.40;99.90;;;;;;5047925;28;20297;-82
2021/08/01 10:21:19;;;;;;;5.03;3.53;;;24.10;99.90;;;;;;5057555;28;20536;-82
2021/08/01 10:23:52;;;;;;;3.50;3.20;;;24.10;99.90;;;;;;5067596;28;20239;-82
2021/08/01 10:26:23;;;;;;;4.47;3.13;;;23.60;99.90;;;;;;5059992;28;20753;-83
2021/08/01 10:28:56;;;;;;;4.13;3.70;;;23.10;99.90;;;;;;5047887;28;20289;-82
2021/08/01 10:31:30;;;;;;;4.43;3.50;;;22.90;99.90;;;;;;5054831;28;20231;-82
2021/08/01 10:34:05;;;;;;;5.00;3.27;;;23.10;99.90;;;;;;5066966;28;20268;-82
2021/08/01 10:36:34;;;;;;;4.53;3.50;;;24.20;99.90;;;;;;5067245;28;20238;-82
2021/08/01 10:39:06;;;;;;;4.00;3.30;;;24.50;99.90;;;;;;5037958;28;20240;-82
2021/08/01 10:41:35;;;;;;;4.60;3.43;;;24.40;99.90;;;;;;5045010;28;20247;-82
2021/08/01 10:44:09;;;;;;;3.90;3.60;;;23.70;99.90;;;;;;5067334;28;20239;-82
2021/08/01 10:46:40;;;;;;;5.57;4.43;;;23.00;99.90;;;;;;5066850;28;20235;-82
2021/08/01 10:49:10;;;;;;;4.90;4.50;;;22.10;99.90;;;;;;5067594;28;20234;-82
2021/08/01 10:51:39;;;;;;;5.30;4.80;;;21.50;99.90;;;;;;5056951;28;20228;-82
2021/08/01 10:54:31;;;;;;;7.70;5.07;;;21.10;99.90;;;;;;5047114;28;20263;-82
2021/08/01 10:57:15;;;;;;;5.93;5.20;;;20.80;99.90;;;;;;5047089;28;20236;-82
2021/08/01 11:00:10;;;;;;;6.87;6.13;;;20.60;99.90;;;;;;5047021;28;20239;-82
2021/08/01 11:02:39;;;;;;;7.60;6.90;;;20.50;99.90;;;;;;5064115;28;20260;-82
2021/08/01 11:05:35;;;;;;;6.67;6.07;;;20.30;99.90;;;;;;5067133;28;20234;-81
2021/08/01 11:08:05;;;;;;;5.30;4.80;;;20.10;99.90;;;;;;5026841;28;20238;-81
2021/08/01 11:10:34;;;;;;;6.40;3.57;;;19.80;99.90;;;;;;5027798;28;20328;-82
2021/08/01 11:13:39;;;;;;;3.53;2.83;;;19.70;99.90;;;;;;5046974;28;20314;-82
2021/08/01 11:16:11;;;;;;;7.07;2.30;;;19.40;99.90;;;;;;5046344;28;20242;-82
2021/08/01 11:18:42;;;;;;;7.53;2.40;;;19.10;99.90;;;;;;5046871;28;20239;-81
2021/08/01 11:21:11;;;;;;;5.73;2.00;;;18.80;99.90;;;;;;5052021;28;20246;-82
2021/08/01 11:24:06;;;;;;;4.00;2.00;;;18.70;99.90;;;;;;5066947;28;20241;-82
2021/08/01 11:26:35;;;;;;;2.70;1.90;;;18.60;99.90;;;;;;5066804;28;20245;-81
2021/08/01 11:29:09;;;;;;;5.57;2.17;;;18.50;99.90;;;;;;5066929;28;20314;-82
2021/08/01 11:31:39;;;;;;;3.50;2.30;;;18.40;99.90;;;;;;5062741;28;20290;-81
2021/08/01 11:34:18;;;;;;;3.63;2.50;;;18.40;99.90;;;;;;5027230;28;20722;-82
2021/08/01 11:36:46;;;;;;;5.47;2.73;;;18.50;99.90;;;;;;5038148;28;20242;-82
2021/08/01 11:39:15;;;;;;;4.13;2.70;;;18.50;99.90;;;;;;5046911;28;20238;-82
2021/08/01 11:41:48;;;;;;;4.03;2.97;;;18.50;99.90;;;;;;5056383;28;20717;-82
2021/08/01 11:44:22;;;;;;;4.80;2.80;;;18.40;99.90;;;;;;5066927;28;20370;-81
2021/08/01 11:47:03;;;;;;;4.30;2.77;;;18.40;99.90;;;;;;5057891;28;20247;-81
2021/08/01 11:49:34;;;;;;;3.17;2.87;;;18.40;99.90;;;;;;5050976;28;20239;-81
2021/08/01 11:52:05;;;;;;;3.80;3.17;;;18.40;99.90;;;;;;5049782;28;20245;-82
2021/08/01 11:54:35;;;;;;;3.90;3.50;;;18.40;99.90;;;;;;5050507;28;20246;-81
2021/08/01 11:57:05;;;;;;;4.60;2.70;;;18.30;99.90;;;;;;5063300;28;20285;-82
2021/08/01 11:59:35;;;;;;;4.27;2.90;;;18.30;99.90;;;;;;5070655;28;20251;-81
2021/08/01 12:02:09;;;;;;;4.07;2.70;;;18.40;99.90;;;;;;5056896;28;20244;-81
2021/08/01 12:04:37;;;;;;;2.77;2.30;;;18.30;99.90;;;;;;5049686;28;20276;-82
2021/08/01 12:07:06;;;;;;;3.33;2.30;;;18.30;99.90;;;;;;5061900;28;20230;-81
2021/08/01 12:09:39;;;;;;;3.27;2.40;;;18.20;99.90;;;;;;5070494;28;20603;-81
2021/08/01 12:12:08;;;;;;;3.50;2.53;;;18.20;99.90;;;;;;5055668;28;20239;-82
2021/08/01 12:14:38;;;;;;;5.53;2.60;;;18.10;99.90;;;;;;5050040;28;20238;-82
2021/08/01 12:17:09;;;;;;;3.77;2.10;;;18.00;99.90;;;;;;5062983;28;20748;-81
2021/08/01 12:19:39;;;;;;;4.83;2.30;;;18.00;99.90;;;;;;5069831;28;20241;-81
2021/08/01 12:22:09;;;;;;;3.17;2.40;;;18.00;99.90;;;;;;5063700;28;20261;-81
2021/08/01 12:24:40;;;;;;;3.83;2.07;;;18.00;99.90;;;;;;5084963;28;20286;-81
2021/08/01 12:27:11;;;;;;;2.40;1.87;;;18.00;99.90;;;;;;5063216;28;20859;-81
2021/08/01 12:29:42;;;;;;;2.63;2.00;;;18.00;99.90;;;;;;5047620;28;20241;-81
2021/08/01 12:32:23;;;;;;;3.57;2.20;;;18.00;99.90;;;;;;5037261;28;20317;-82
2021/08/01 12:34:52;;;;;;;2.93;2.40;;;18.00;99.90;;;;;;5029914;28;20253;-81
2021/08/01 12:37:21;;;;;;;2.43;2.03;;;18.00;99.90;;;;;;5060115;28;20225;-82
2021/08/01 12:39:51;;;;;;;3.93;2.13;;;18.00;99.90;;;;;;5069211;28;20287;-81
2021/08/01 12:42:20;;;;;;;3.77;2.23;;;18.00;99.90;;;;;;5053520;28;20742;-80
2021/08/01 12:44:57;;;;;;;3.03;2.23;;;18.00;99.90;;;;;;5049267;28;20249;-81
2021/08/01 12:47:29;;;;;;;2.43;2.20;;;18.00;99.90;;;;;;5064841;28;20256;-81
2021/08/01 12:50:05;;;;;;;3.13;2.17;;;18.00;99.90;;;;;;5068101;28;20233;-80
2021/08/01 12:52:33;;;;;;;4.33;2.30;;;17.90;99.90;;;;;;5051183;28;20240;-81
2021/08/01 12:55:06;;;;;;;3.17;2.37;;;17.90;99.90;;;;;;5049827;28;20654;-81
2021/08/01 12:57:35;;;;;;;3.07;2.47;;;18.00;99.90;;;;;;5049393;28;20719;-81
2021/08/01 13:00:11;;;;;;;4.63;2.50;;;18.00;99.90;;;;;;5050183;28;20645;-81
2021/08/01 13:02:43;;;;;;;3.57;2.53;;;18.10;99.90;;;;;;5048792;28;20245;-81
2021/08/01 13:05:21;;;;;;;3.60;2.37;;;18.20;99.90;;;;;;5049405;28;20233;-81
2021/08/01 13:07:50;;;;;;;2.90;2.60;;;18.30;99.90;;;;;;5049596;28;20234;-81